Time;durP1;ratioP1;P1;durP2;ratioP2;P2;SDS_P1;SDS_P2;PMS_P1;PMS_P2;Temp;Humidity;BMP_temperature;BMP_pressure;BME280_temperature;BME280_humidity;BME280_pressure;Samples;Min_cycle;Max_cycle;Signal;HPM_P1;HPM_P2
2021/12/02 00:01:26;;;;;;;2.67;2.12;;;;;;;7.71;68.14;97821.56;4262323;33;33862;-70
2021/12/02 00:03:55;;;;;;;7.85;4.40;;;;;;;7.57;68.50;97815.84;4262096;33;34651;-70
2021/12/02 00:06:23;;;;;;;4.68;2.70;;;;;;;7.49;68.85;97823.78;4262220;33;34492;-70
2021/12/02 00:08:52;;;;;;;4.10;1.87;;;;;;;7.62;68.84;97821.75;4249524;33;33856;-71
2021/12/02 00:11:21;;;;;;;3.97;2.10;;;;;;;7.79;68.14;97830.00;4262047;33;33779;-71
2021/12/02 00:16:33;;;;;;;6.07;2.05;;;;;;;7.98;67.63;97835.59;4262180;33;34525;-71
2021/12/02 00:21:51;;;;;;;3.10;2.08;;;;;;;7.85;67.73;97830.72;4262308;33;34307;-71
2021/12/02 00:24:22;;;;;;;7.30;3.85;;;;;;;8.04;67.09;97826.81;4248998;33;35016;-71
2021/12/02 00:26:51;;;;;;;5.37;3.25;;;;;;;8.00;67.07;97832.12;4249663;33;34642;-71
2021/12/02 00:29:21;;;;;;;4.03;2.30;;;;;;;8.16;66.59;97828.25;4260509;33;33313;-71
2021/12/02 00:31:51;;;;;;;7.62;2.35;;;;;;;7.94;67.25;97833.97;4246634;33;33462;-71
2021/12/02 00:34:20;;;;;;;3.67;1.75;;;;;;;7.90;67.60;97831.47;4253170;33;35283;-71
2021/12/02 00:36:48;;;;;;;3.15;2.22;;;;;;;8.75;64.69;97824.97;4262108;33;35266;-70
2021/12/02 00:39:19;;;;;;;3.17;1.52;;;;;;;8.77;64.44;97825.81;4261973;33;33677;-70
2021/12/02 00:41:48;;;;;;;2.47;1.30;;;;;;;8.27;65.97;97825.38;4249281;33;34211;-70
2021/12/02 00:44:18;;;;;;;3.37;1.85;;;;;;;7.97;66.85;97825.25;4261667;33;35277;-70
2021/12/02 00:46:47;;;;;;;3.20;1.65;;;;;;;8.38;65.88;97812.13;4261995;33;34455;-70
2021/12/02 00:49:17;;;;;;;1.58;1.33;;;;;;;8.06;66.95;97816.41;4261218;33;33806;-71
2021/12/02 00:51:47;;;;;;;3.55;2.00;;;;;;;8.12;66.76;97824.03;4261998;33;33938;-71
2021/12/02 00:54:16;;;;;;;4.25;2.20;;;;;;;8.16;66.68;97817.88;4258511;33;34244;-71
2021/12/02 00:56:43;;;;;;;2.70;1.80;;;;;;;8.18;66.65;97816.09;4249192;33;34488;-71
2021/12/02 00:59:11;;;;;;;1.40;1.30;;;;;;;8.41;65.55;97804.25;4261120;33;34305;-70
2021/12/02 01:01:39;;;;;;;2.33;1.60;;;;;;;8.36;65.79;97814.75;4261938;33;34717;-70
2021/12/02 01:04:11;;;;;;;4.62;2.60;;;;;;;8.62;65.17;97821.03;4260623;33;35064;-70
2021/12/02 01:06:40;;;;;;;3.90;2.05;;;;;;;8.11;66.62;97820.56;4262109;33;34499;-70
2021/12/02 01:09:10;;;;;;;2.42;1.52;;;;;;;8.56;65.17;97821.19;4261255;33;34418;-71
2021/12/02 01:11:39;;;;;;;2.35;1.60;;;;;;;8.62;65.16;97818.44;4249106;33;33915;-71
2021/12/02 01:14:08;;;;;;;3.58;1.87;;;;;;;8.83;64.25;97820.44;4260507;33;34944;-71
2021/12/02 01:16:35;;;;;;;4.47;1.80;;;;;;;8.41;65.79;97825.00;4261764;33;34557;-70
2021/12/02 01:19:05;;;;;;;7.65;2.05;;;;;;;8.73;64.95;97829.34;4261114;33;33684;-71
2021/12/02 01:21:38;;;;;;;3.03;1.77;;;;;;;8.46;65.33;97821.44;4261817;33;33892;-71
2021/12/02 01:24:07;;;;;;;1.70;1.37;;;;;;;8.79;64.59;97818.81;4261409;33;35006;-71
2021/12/02 01:26:35;;;;;;;2.67;1.62;;;;;;;8.84;64.16;97822.13;4261728;33;34418;-70
2021/12/02 01:29:04;;;;;;;4.70;1.95;;;;;;;8.39;65.59;97821.63;4261012;33;33716;-70
2021/12/02 01:31:34;;;;;;;3.65;1.70;;;;;;;8.18;66.46;97813.50;4261820;33;34008;-70
2021/12/02 01:34:08;;;;;;;3.12;1.70;;;;;;;8.58;65.13;97814.19;4260744;33;35800;-71
2021/12/02 01:36:38;;;;;;;2.83;1.50;;;;;;;8.43;64.96;97811.13;4260248;33;34485;-71
2021/12/02 01:39:08;;;;;;;2.08;1.62;;;;;;;8.36;65.67;97806.97;4260966;33;32871;-71
2021/12/02 01:41:56;;;;;;;1.90;1.30;;;;;;;8.28;65.94;97808.94;4261691;33;34636;-71
2021/12/02 01:44:27;;;;;;;3.30;1.62;;;;;;;8.53;64.98;97807.41;4258382;33;35580;-70
2021/12/02 01:46:58;;;;;;;4.03;1.62;;;;;;;8.45;65.01;97800.72;4261174;33;34602;-72
2021/12/02 01:49:30;;;;;;;2.67;1.52;;;;;;;9.03;63.25;97800.81;4248199;33;34509;-71
2021/12/02 01:51:59;;;;;;;4.05;1.45;;;;;;;8.73;63.96;97795.63;4261663;33;33942;-71
2021/12/02 01:54:27;;;;;;;2.25;1.40;;;;;;;8.49;64.77;97790.22;4248053;33;35060;-71
2021/12/02 01:57:07;;;;;;;2.45;1.55;;;;;;;8.41;65.48;97786.09;4261533;33;35169;-71
2021/12/02 01:59:37;;;;;;;5.75;1.80;;;;;;;8.56;64.71;97790.91;4260869;33;33926;-71
2021/12/02 02:02:09;;;;;;;2.95;1.55;;;;;;;8.88;63.57;97783.97;4261531;33;33798;-70
2021/12/02 02:04:38;;;;;;;2.72;1.40;;;;;;;8.70;64.15;97793.97;4238151;33;35930;-71
2021/12/02 02:07:11;;;;;;;2.28;1.20;;;;;;;8.65;64.03;97785.47;4261485;33;34505;-71
2021/12/02 02:09:40;;;;;;;6.28;2.33;;;;;;;8.66;64.18;97784.56;4260686;33;33746;-70
2021/12/02 02:12:11;;;;;;;2.78;1.45;;;;;;;8.92;63.05;97790.75;4261431;33;33876;-71
2021/12/02 02:14:41;;;;;;;2.78;1.52;;;;;;;8.53;64.43;97791.00;4260474;33;35036;-70
2021/12/02 02:17:32;;;;;;;1.95;1.37;;;;;;;8.33;65.22;97783.72;4260263;33;34588;-70
2021/12/02 02:20:01;;;;;;;2.50;1.67;;;;;;;8.59;64.20;97788.22;4259959;33;33653;-71
2021/12/02 02:22:29;;;;;;;2.97;1.95;;;;;;;8.59;64.54;97787.38;4261258;33;33923;-71
2021/12/02 02:24:57;;;;;;;3.65;2.00;;;;;;;8.55;64.34;97789.22;4260257;33;35129;-70
2021/12/02 02:27:25;;;;;;;2.03;1.60;;;;;;;8.31;64.93;97788.09;4261157;33;34471;-71
2021/12/02 02:29:52;;;;;;;2.22;1.48;;;;;;;8.94;63.33;97780.34;4260579;33;33709;-70
2021/12/02 02:32:25;;;;;;;4.90;1.65;;;;;;;8.95;63.08;97776.81;4261158;33;33983;-72
2021/12/02 02:34:53;;;;;;;2.80;1.65;;;;;;;8.33;64.74;97769.00;4246881;33;35057;-70
2021/12/02 02:37:21;;;;;;;4.15;1.95;;;;;;;8.52;64.21;97772.00;4260399;33;34462;-70
2021/12/02 02:39:48;;;;;;;2.37;1.30;;;;;;;8.76;63.74;97771.34;4260281;33;34404;-71
2021/12/02 02:42:22;;;;;;;1.75;1.40;;;;;;;8.70;63.94;97767.16;4260864;33;34487;-70
2021/12/02 02:44:51;;;;;;;2.67;1.58;;;;;;;8.66;63.72;97770.75;4258325;33;35058;-72
2021/12/02 02:47:23;;;;;;;3.10;1.55;;;;;;;8.67;63.73;97777.66;4260880;33;34473;-72
2021/12/02 02:49:51;;;;;;;2.28;1.50;;;;;;;8.60;64.36;97778.72;4260264;33;33656;-70
2021/12/02 02:52:19;;;;;;;4.25;1.95;;;;;;;8.64;64.07;97772.53;4260793;33;34832;-70
2021/12/02 02:54:47;;;;;;;2.85;1.77;;;;;;;8.61;64.13;97777.81;4260104;33;36080;-71
2021/12/02 02:57:17;;;;;;;5.85;1.58;;;;;;;8.25;65.25;97780.47;4260054;33;35332;-70
2021/12/02 03:00:03;;;;;;;2.30;1.52;;;;;;;8.28;65.26;97775.22;4247772;33;33003;-70
2021/12/02 03:05:29;;;;;;;3.03;1.60;;;;;;;7.98;66.43;97777.72;4249106;33;35112;-71
2021/12/02 03:08:10;;;;;;;2.62;1.60;;;;;;;7.98;66.58;97778.56;4260036;33;35078;-70
2021/12/02 03:10:48;;;;;;;3.72;1.62;;;;;;;8.25;65.49;97773.53;4259977;33;33794;-70
2021/12/02 03:13:22;;;;;;;2.45;1.50;;;;;;;8.08;65.82;97774.00;4260710;33;33783;-70
2021/12/02 03:18:37;;;;;;;4.30;1.62;;;;;;;7.97;66.61;97778.59;4259744;33;34502;-70
2021/12/02 03:21:26;;;;;;;3.67;2.00;;;;;;;7.64;67.86;97778.56;4259677;33;34527;-71
2021/12/02 03:23:56;;;;;;;4.90;2.45;;;;;;;8.08;66.68;97783.50;4259932;33;33930;-70
2021/12/02 03:26:26;;;;;;;3.80;2.05;;;;;;;7.78;67.37;97786.84;4260386;33;36122;-71
2021/12/02 03:28:54;;;;;;;6.65;1.95;;;;;;;8.08;66.70;97791.28;4262402;33;34600;-71
2021/12/02 03:31:22;;;;;;;5.30;2.53;;;;;;;8.23;66.15;97788.28;4261717;33;34512;-70
2021/12/02 03:33:50;;;;;;;3.60;2.17;;;;;;;7.90;67.43;97785.66;4262470;33;33884;-72
2021/12/02 03:36:19;;;;;;;6.70;2.45;;;;;;;7.93;67.22;97785.59;4261595;33;35073;-70
2021/12/02 03:38:47;;;;;;;5.53;2.62;;;;;;;7.74;67.83;97780.00;4261763;33;33138;-70
2021/12/02 03:41:16;;;;;;;5.05;2.22;;;;;;;8.00;66.75;97780.28;4261600;33;34648;-71
2021/12/02 03:43:46;;;;;;;3.58;1.83;;;;;;;7.86;67.66;97780.63;4262204;33;33565;-71
2021/12/02 03:46:17;;;;;;;2.47;1.60;;;;;;;8.15;66.45;97778.13;4260058;33;36187;-70
2021/12/02 03:48:46;;;;;;;3.05;1.55;;;;;;;7.82;67.72;97771.19;4262315;33;35163;-71
2021/12/02 03:51:14;;;;;;;3.00;1.80;;;;;;;8.00;66.87;97770.75;4260920;33;34474;-70
2021/12/02 03:53:42;;;;;;;2.08;1.65;;;;;;;8.32;65.93;97775.06;4262288;33;34643;-71
2021/12/02 03:56:11;;;;;;;2.72;1.55;;;;;;;8.41;65.49;97776.56;4261577;33;36140;-70
2021/12/02 03:58:40;;;;;;;2.33;1.80;;;;;;;8.49;66.11;97774.66;4248994;33;32362;-71
2021/12/02 04:01:09;;;;;;;2.17;1.35;;;;;;;9.00;64.24;97770.63;4260738;33;33724;-72
2021/12/02 04:03:37;;;;;;;1.87;1.30;;;;;;;8.72;65.35;97765.38;4261481;33;34506;-71
2021/12/02 04:06:07;;;;;;;1.58;1.27;;;;;;;9.02;64.38;97774.03;4261450;33;36031;-70
2021/12/02 04:08:43;;;;;;;2.22;1.55;;;;;;;9.38;63.25;97773.78;4262175;33;34481;-71
2021/12/02 04:16:35;;;;;;;4.03;1.55;;;;;;;8.83;65.40;97789.28;4248928;33;35052;-71
2021/12/02 04:19:08;;;;;;;2.97;1.80;;;;;;;8.71;65.94;97780.09;4262120;33;35227;-71
2021/12/02 04:21:39;;;;;;;2.50;1.45;;;;;;;8.73;66.11;97778.31;4261480;33;34314;-71
2021/12/02 04:24:07;;;;;;;2.97;1.62;;;;;;;8.89;65.53;97783.94;4261346;33;33845;-71
2021/12/02 04:26:36;;;;;;;2.03;1.37;;;;;;;8.89;65.51;97793.44;4261396;33;35138;-70
2021/12/02 04:29:04;;;;;;;2.78;1.87;;;;;;;8.47;66.96;97802.41;4249613;33;35230;-71
2021/12/02 04:31:32;;;;;;;7.20;2.65;;;;;;;8.45;67.25;97791.22;4261257;33;34537;-71
2021/12/02 04:33:59;;;;;;;5.10;1.90;;;;;;;8.28;67.86;97786.44;4262074;33;33742;-70
2021/12/02 04:36:28;;;;;;;3.85;1.75;;;;;;;8.68;66.69;97787.97;4251438;33;274145;-71
2021/12/02 04:38:55;;;;;;;3.35;1.70;;;;;;;9.22;64.82;97781.19;4260524;33;34756;-70
2021/12/02 04:41:23;;;;;;;3.30;1.80;;;;;;;8.37;67.43;97785.34;4261280;33;33353;-72
2021/12/02 04:43:51;;;;;;;4.40;1.80;;;;;;;8.80;66.10;97783.31;4257192;33;34844;-70
2021/12/02 04:46:19;;;;;;;2.20;1.50;;;;;;;8.49;67.27;97785.03;4260609;33;35942;-72
2021/12/02 04:48:47;;;;;;;2.92;1.80;;;;;;;8.45;67.61;97783.44;4261583;33;35171;-71
2021/12/02 04:51:16;;;;;;;2.10;1.52;;;;;;;8.54;67.28;97772.78;4261187;33;33593;-71
2021/12/02 04:53:43;;;;;;;5.65;1.80;;;;;;;8.42;67.56;97773.13;4260947;33;33859;-71
2021/12/02 04:56:11;;;;;;;3.60;1.85;;;;;;;8.44;67.83;97780.88;4261444;33;35177;-70
2021/12/02 04:58:39;;;;;;;3.08;1.80;;;;;;;8.37;68.30;97785.34;4261567;33;34633;-70
2021/12/02 05:01:07;;;;;;;3.50;2.25;;;;;;;8.33;68.62;97787.16;4260161;33;34560;-71
2021/12/02 05:03:35;;;;;;;4.25;2.10;;;;;;;8.14;68.80;97773.84;4261521;33;33905;-72
2021/12/02 05:06:04;;;;;;;5.22;2.62;;;;;;;7.50;71.22;97785.78;4261077;33;35181;-70
2021/12/02 05:08:32;;;;;;;4.60;1.77;;;;;;;8.15;69.15;97780.72;4260859;33;33949;-70
2021/12/02 05:10:59;;;;;;;2.75;1.85;;;;;;;7.91;69.74;97791.72;4260377;33;34681;-70
2021/12/02 05:13:28;;;;;;;4.28;2.15;;;;;;;7.95;69.66;97804.56;4260883;33;33963;-70
2021/12/02 05:15:55;;;;;;;4.28;1.98;;;;;;;8.16;69.01;97804.91;4261044;33;34785;-70
2021/12/02 05:18:28;;;;;;;4.93;2.12;;;;;;;8.07;69.26;97800.81;4261460;33;34375;-69
2021/12/02 05:20:57;;;;;;;4.28;2.15;;;;;;;8.06;69.41;97798.25;4260600;33;33759;-70
2021/12/02 05:23:25;;;;;;;7.62;3.08;;;;;;;8.19;68.95;97798.78;4261573;33;34758;-71
2021/12/02 05:25:53;;;;;;;6.62;3.55;;;;;;;8.16;69.17;97795.38;4260821;33;35903;-70
2021/12/02 05:28:21;;;;;;;5.68;3.10;;;;;;;8.29;68.84;97795.06;4260888;33;35243;-71
2021/12/02 05:30:49;;;;;;;5.03;2.78;;;;;;;8.49;68.48;97791.97;4260954;33;34143;-70
2021/12/02 05:33:17;;;;;;;4.80;2.58;;;;;;;8.54;67.86;97788.38;4261373;33;34043;-70
2021/12/02 05:35:46;;;;;;;3.58;2.12;;;;;;;8.81;67.32;97780.69;4260850;33;35069;-71
2021/12/02 05:38:13;;;;;;;5.22;2.67;;;;;;;8.80;67.26;97784.16;4248567;33;34515;-71
2021/12/02 05:40:42;;;;;;;4.65;2.60;;;;;;;8.79;66.67;97792.88;4260733;33;33604;-72
2021/12/02 05:43:10;;;;;;;10.02;4.85;;;;;;;7.74;71.26;97787.78;4261114;33;33810;-70
2021/12/02 05:45:38;;;;;;;8.18;4.30;;;;;;;8.48;69.26;97785.09;4248461;33;35029;-72
2021/12/02 05:48:06;;;;;;;5.47;2.70;;;;;;;8.08;70.58;97788.69;4261607;33;34550;-71
2021/12/02 05:50:33;;;;;;;5.70;2.45;;;;;;;8.05;70.79;97784.44;4259759;33;34570;-72
2021/12/02 05:53:01;;;;;;;5.35;2.65;;;;;;;7.86;72.11;97783.22;4248852;33;33993;-71
2021/12/02 05:55:30;;;;;;;10.25;3.62;;;;;;;8.31;70.51;97781.19;4260799;33;35964;-72
2021/12/02 05:57:57;;;;;;;27.35;9.95;;;;;;;7.98;71.40;97782.91;4261399;33;34725;-72
2021/12/02 06:00:26;;;;;;;14.13;5.20;;;;;;;8.39;70.64;97777.53;4259555;33;34629;-71
2021/12/02 06:02:54;;;;;;;12.60;4.22;;;;;;;7.83;72.20;97772.91;4261428;33;34762;-72
2021/12/02 06:05:22;;;;;;;11.00;4.75;;;;;;;8.01;71.74;97777.63;4260255;33;35132;-76
2021/12/02 06:07:52;;;;;;;19.85;7.70;;;;;;;7.95;71.97;97777.78;4261420;33;35265;-70
2021/12/02 06:10:20;;;;;;;21.15;7.57;;;;;;;7.87;72.25;97779.72;4260658;33;33003;-70
2021/12/02 06:12:48;;;;;;;7.53;3.90;;;;;;;7.28;75.24;97778.50;4260092;33;34049;-70
2021/12/02 06:15:16;;;;;;;69.55;25.52;;;;;;;7.09;76.48;97774.63;4261237;33;34930;-70
2021/12/02 06:17:44;;;;;;;53.38;19.10;;;;;;;7.17;76.57;97775.31;4260532;33;34484;-71
2021/12/02 06:20:14;;;;;;;39.67;16.30;;;;;;;7.67;74.29;97773.28;4261282;33;33870;-71
2021/12/02 06:22:42;;;;;;;38.03;12.20;;;;;;;7.52;74.83;97784.03;4260605;33;34713;-73
2021/12/02 06:27:51;;;;;;;12.90;5.07;;;;;;;7.79;72.59;97778.16;4258930;33;35069;-71
2021/12/02 06:30:21;;;;;;;10.85;3.90;;;;;;;8.16;72.68;97781.56;4260752;33;34576;-72
2021/12/02 06:32:50;;;;;;;11.05;3.37;;;;;;;8.12;71.80;97787.75;4260450;33;34647;-72
2021/12/02 06:35:18;;;;;;;11.57;4.15;;;;;;;8.29;71.00;97784.69;4259936;33;36070;-70
2021/12/02 06:37:46;;;;;;;7.12;2.83;;;;;;;8.23;71.25;97779.69;4260474;33;34586;-71
2021/12/02 06:40:15;;;;;;;7.20;2.83;;;;;;;7.77;73.12;97776.50;4261004;33;34608;-70
2021/12/02 06:42:43;;;;;;;7.95;3.60;;;;;;;7.29;75.75;97776.78;4259279;33;34008;-70
2021/12/02 06:45:11;;;;;;;6.43;3.50;;;;;;;7.17;76.70;97786.53;4259637;33;35913;-71
2021/12/02 06:47:46;;;;;;;9.50;4.60;;;;;;;7.19;77.27;97781.31;4260918;33;34390;-71
2021/12/02 06:50:19;;;;;;;10.82;4.80;;;;;;;7.33;77.30;97783.59;4254317;33;33629;-71
2021/12/02 06:52:48;;;;;;;5.80;3.12;;;;;;;7.70;75.91;97782.75;4260250;33;33851;-71
2021/12/02 06:55:17;;;;;;;5.05;2.47;;;;;;;7.65;76.27;97800.97;4260006;33;35064;-71
2021/12/02 06:57:45;;;;;;;4.80;2.70;;;;;;;7.27;78.42;97802.72;4248068;33;34437;-70
2021/12/02 07:00:16;;;;;;;5.12;2.90;;;;;;;7.18;78.53;97806.37;4260014;33;34453;-71
2021/12/02 07:02:45;;;;;;;6.28;3.60;;;;;;;7.34;77.87;97804.28;4258449;33;33994;-70
2021/12/02 07:05:15;;;;;;;5.82;3.90;;;;;;;7.39;77.73;97810.22;4261304;33;35929;-70
2021/12/02 07:07:45;;;;;;;10.82;5.03;;;;;;;7.78;76.27;97804.97;4261446;33;33760;-71
2021/12/02 07:10:22;;;;;;;9.75;4.78;;;;;;;8.02;74.74;97818.22;4261686;33;33874;-71
2021/12/02 07:12:54;;;;;;;11.02;4.43;;;;;;;7.39;77.23;97827.47;4262416;33;33941;-70
2021/12/02 07:15:31;;;;;;;7.93;3.83;;;;;;;7.53;77.10;97827.16;4261827;33;35020;-70
2021/12/02 07:18:00;;;;;;;13.52;4.40;;;;;;;7.46;77.67;97823.84;4262466;33;35298;-72
2021/12/02 07:20:34;;;;;;;8.85;3.67;;;;;;;8.40;74.26;97820.69;4261676;33;34516;-72
2021/12/02 07:23:03;;;;;;;4.50;3.10;;;;;;;8.84;71.69;97816.06;4261426;33;34702;-72
2021/12/02 07:25:32;;;;;;;7.37;3.67;;;;;;;8.45;73.46;97816.28;4261079;33;35054;-76
2021/12/02 07:28:01;;;;;;;8.23;4.47;;;;;;;8.04;74.92;97818.19;4261672;33;34357;-72
2021/12/02 07:30:29;;;;;;;9.88;5.22;;;;;;;7.71;76.85;97818.09;4239863;33;34372;-71
2021/12/02 07:32:58;;;;;;;9.93;5.12;;;;;;;7.99;75.82;97820.87;4242635;33;34722;-71
2021/12/02 07:35:27;;;;;;;10.05;4.62;;;;;;;8.08;75.11;97824.97;4257071;33;35885;-71
2021/12/02 07:37:57;;;;;;;9.65;5.07;;;;;;;8.48;73.58;97818.81;4262431;33;34198;-71
2021/12/02 07:40:27;;;;;;;15.73;11.68;;;;;;;8.29;74.18;97827.03;4260942;33;34434;-72
2021/12/02 07:42:56;;;;;;;12.85;6.78;;;;;;;7.78;76.34;97822.25;4261444;33;33780;-71
2021/12/02 07:45:27;;;;;;;8.93;5.37;;;;;;;7.82;76.61;97829.09;4260160;33;34978;-71
2021/12/02 07:47:56;;;;;;;10.00;4.90;;;;;;;8.08;75.82;97831.03;4262432;33;35029;-71
2021/12/02 07:50:23;;;;;;;10.10;4.75;;;;;;;8.06;75.96;97822.41;4260780;33;34659;-71
2021/12/02 07:52:58;;;;;;;11.57;5.45;;;;;;;8.13;76.15;97829.16;4262281;33;33998;-71
2021/12/02 07:55:28;;;;;;;9.30;4.72;;;;;;;8.12;76.49;97832.66;4261619;33;35054;-71
2021/12/02 07:57:56;;;;;;;8.10;4.25;;;;;;;8.22;76.14;97837.59;4260169;33;35344;-71
2021/12/02 08:00:27;;;;;;;7.55;4.85;;;;;;;8.30;75.94;97838.25;4261199;33;34528;-71
2021/12/02 08:02:56;;;;;;;12.25;5.78;;;;;;;8.76;74.39;97839.66;4261405;33;33942;-71
2021/12/02 08:05:26;;;;;;;9.57;5.40;;;;;;;9.12;72.66;97842.09;4260548;33;35933;-71
2021/12/02 08:07:55;;;;;;;9.77;5.68;;;;;;;8.75;73.75;97843.13;4262312;33;35286;-71
2021/12/02 08:10:23;;;;;;;12.88;5.90;;;;;;;8.60;74.60;97838.38;4261499;33;33537;-71
2021/12/02 08:12:51;;;;;;;10.52;6.40;;;;;;;8.73;74.59;97843.19;4261894;33;34832;-71
2021/12/02 08:15:22;;;;;;;12.37;7.37;;;;;;;8.39;75.64;97840.62;4260789;33;36047;-72
2021/12/02 08:17:51;;;;;;;11.38;6.40;;;;;;;8.26;76.65;97834.91;4262270;33;34327;-73
2021/12/02 08:20:22;;;;;;;13.90;7.00;;;;;;;8.55;75.60;97838.50;4260415;33;33623;-72
2021/12/02 08:22:50;;;;;;;15.20;7.37;;;;;;;8.20;77.49;97847.16;4249485;33;33876;-71
2021/12/02 08:25:20;;;;;;;12.98;7.57;;;;;;;8.65;76.36;97842.56;4248204;33;34183;-72
2021/12/02 08:27:51;;;;;;;12.37;7.25;;;;;;;8.81;75.46;97847.31;4249405;33;34546;-72
2021/12/02 08:30:22;;;;;;;9.77;6.00;;;;;;;8.88;75.06;97849.69;4261386;33;33610;-72
2021/12/02 08:32:50;;;;;;;11.23;6.53;;;;;;;8.72;76.00;97856.22;4262227;33;33963;-72
2021/12/02 08:35:19;;;;;;;14.02;8.15;;;;;;;8.54;76.98;97861.00;4260184;33;35141;-72
2021/12/02 08:37:49;;;;;;;12.00;7.20;;;;;;;8.52;77.41;97865.38;4248197;33;34358;-71
2021/12/02 08:40:20;;;;;;;11.93;6.43;;;;;;;8.38;78.03;97861.41;4260066;33;34449;-72
2021/12/02 08:42:48;;;;;;;13.88;8.10;;;;;;;8.14;79.58;97867.16;4252059;33;33126;-72
2021/12/02 08:45:16;;;;;;;10.63;5.68;;;;;;;8.08;79.96;97861.28;4260114;33;35145;-72
2021/12/02 08:47:45;;;;;;;12.45;5.75;;;;;;;8.51;78.12;97865.41;4248418;33;34611;-72
2021/12/02 08:50:15;;;;;;;10.82;6.43;;;;;;;8.53;78.26;97864.47;4259749;33;33699;-72
2021/12/02 08:52:44;;;;;;;9.55;5.85;;;;;;;9.11;76.35;97866.37;4247243;33;33519;-72
2021/12/02 08:55:13;;;;;;;9.95;6.03;;;;;;;8.95;75.88;97865.97;4259985;33;34942;-72
2021/12/02 08:57:47;;;;;;;12.80;6.20;;;;;;;8.65;77.58;97867.66;4261955;33;34458;-72
2021/12/02 09:00:19;;;;;;;13.32;7.40;;;;;;;9.00;76.51;97868.41;4260179;33;32736;-73
2021/12/02 09:02:47;;;;;;;10.93;6.43;;;;;;;8.80;77.48;97866.37;4261995;33;33993;-73
2021/12/02 09:05:16;;;;;;;8.07;4.37;;;;;;;8.27;80.20;97867.69;4261139;33;35385;-73
2021/12/02 09:07:44;;;;;;;10.85;4.75;;;;;;;9.43;74.63;97857.63;4261894;33;34539;-72
2021/12/02 09:10:15;;;;;;;8.45;5.43;;;;;;;8.53;78.69;97858.44;4261199;33;34535;-72
2021/12/02 09:12:44;;;;;;;9.77;5.00;;;;;;;8.61;78.65;97861.69;4261875;33;33906;-72
2021/12/02 09:15:12;;;;;;;12.43;5.53;;;;;;;9.35;75.03;97858.75;4258378;33;35008;-73
2021/12/02 09:17:40;;;;;;;8.73;4.62;;;;;;;8.60;78.55;97854.78;4261051;33;34469;-72
2021/12/02 09:20:10;;;;;;;8.13;5.10;;;;;;;8.66;78.60;97848.59;4261037;33;34419;-73
2021/12/02 09:22:39;;;;;;;6.90;4.37;;;;;;;8.48;80.04;97855.12;4261771;33;33989;-73
2021/12/02 09:25:08;;;;;;;8.23;4.12;;;;;;;8.99;76.81;97849.41;4260508;33;35979;-73
2021/12/02 09:27:36;;;;;;;9.20;4.12;;;;;;;8.99;76.24;97840.75;4249020;33;35156;-73
2021/12/02 09:30:06;;;;;;;10.63;5.47;;;;;;;8.76;77.44;97841.41;4236418;33;33747;-73
2021/12/02 09:32:34;;;;;;;10.38;5.22;;;;;;;8.43;79.51;97836.22;4261879;33;34752;-71
2021/12/02 09:35:03;;;;;;;9.73;4.70;;;;;;;8.61;79.42;97834.88;4260373;33;35889;-71
2021/12/02 09:37:31;;;;;;;6.40;3.55;;;;;;;8.17;81.00;97832.56;4247314;33;33046;-74
2021/12/02 09:40:05;;;;;;;9.68;4.03;;;;;;;8.14;82.02;97825.69;4256900;33;33913;-72
2021/12/02 09:42:33;;;;;;;7.37;3.95;;;;;;;8.19;81.86;97820.41;4253193;33;33165;-73
2021/12/02 09:45:02;;;;;;;12.02;4.25;;;;;;;7.92;83.50;97817.59;4252750;33;35211;-77
2021/12/02 09:47:34;;;;;;;6.78;3.47;;;;;;;8.16;83.36;97818.72;4241997;33;35349;-74
2021/12/02 09:50:06;;;;;;;7.95;3.97;;;;;;;7.48;85.19;97816.94;4258346;33;34593;-73
2021/12/02 09:52:38;;;;;;;12.13;6.37;;;;;;;7.57;85.34;97818.41;4243800;33;34673;-75
2021/12/02 09:55:19;;;;;;;13.45;7.62;;;;;;;8.57;80.87;97812.50;4259286;33;35037;-75
2021/12/02 09:57:52;;;;;;;8.40;4.43;;;;;;;8.17;81.48;97811.81;4244611;33;34262;-74
2021/12/02 10:00:38;;;;;;;7.82;4.37;;;;;;;8.47;80.88;97804.13;4259414;33;33656;-73
2021/12/02 10:06:07;;;;;;;;;;;;;;;8.42;81.97;97809.44;4248913;33;34955;-73
2021/12/02 10:08:56;;;;;;;8.38;4.40;;;;;;;8.58;80.89;97799.50;4235868;33;34645;-75
2021/12/02 10:11:45;;;;;;;8.60;4.18;;;;;;;8.74;81.12;97799.94;4255850;33;33776;-74
2021/12/02 10:14:20;;;;;;;9.88;4.75;;;;;;;8.24;83.30;97794.31;4260222;33;34767;-74
2021/12/02 10:16:50;;;;;;;8.20;5.00;;;;;;;8.21;82.83;97791.84;4258862;33;35043;-74
2021/12/02 10:19:26;;;;;;;10.27;6.03;;;;;;;8.27;83.48;97789.06;4261074;33;33704;-75
2021/12/02 10:21:56;;;;;;;13.50;7.55;;;;;;;8.22;85.05;97790.94;4260304;33;34538;-74
2021/12/02 10:24:26;;;;;;;13.70;9.55;;;;;;;8.21;84.88;97781.47;4259072;33;33939;-74
2021/12/02 10:27:05;;;;;;;18.15;9.20;;;;;;;7.77;87.06;97777.34;4259808;33;35036;-74
2021/12/02 10:29:50;;;;;;;19.17;12.88;;;;;;;8.05;87.06;97774.06;4246357;33;34540;-75
2021/12/02 10:32:22;;;;;;;13.55;7.57;;;;;;;8.03;86.50;97775.87;4260901;33;33617;-72
2021/12/02 10:35:02;;;;;;;8.63;4.68;;;;;;;7.44;89.77;97785.94;4259237;33;34046;-71
2021/12/02 10:37:33;;;;;;;16.40;9.38;;;;;;;8.19;87.63;97771.12;4261216;33;35808;-70
2021/12/02 10:40:07;;;;;;;11.82;7.90;;;;;;;7.98;85.86;97764.75;4249049;33;35214;-72
2021/12/02 10:42:38;;;;;;;8.90;5.97;;;;;;;8.24;84.65;97773.59;4262308;33;33701;-70
2021/12/02 10:45:08;;;;;;;7.22;4.07;;;;;;;8.98;80.75;97766.34;4258473;33;34071;-71
2021/12/02 10:47:36;;;;;;;7.28;4.45;;;;;;;8.75;81.22;97770.47;4249647;33;35052;-71
2021/12/02 10:50:09;;;;;;;8.98;5.37;;;;;;;8.81;81.50;97772.91;4261543;33;34375;-70
2021/12/02 10:52:40;;;;;;;22.92;11.43;;;;;;;8.77;81.74;97760.91;4262020;33;33713;-75
2021/12/02 10:55:11;;;;;;;13.20;6.43;;;;;;;8.38;83.27;97755.06;4248761;33;34622;-74
2021/12/02 10:57:48;;;;;;;24.98;13.82;;;;;;;9.27;79.46;97750.75;4248614;33;33968;-73
2021/12/02 11:00:23;;;;;;;5.07;2.67;;;;;;;9.22;78.95;97747.44;4258759;33;34303;-72
2021/12/02 11:02:54;;;;;;;16.80;7.30;;;;;;;9.13;78.37;97745.13;4247898;33;34439;-74
2021/12/02 11:05:31;;;;;;;17.58;8.75;;;;;;;9.42;76.35;97740.78;4248753;33;33999;-73
2021/12/02 11:08:05;;;;;;;32.92;14.57;;;;;;;9.85;74.93;97739.38;4266711;33;35915;-72
2021/12/02 11:10:49;;;;;;;127.65;57.20;;;;;;;9.39;77.26;97735.66;4261268;33;34509;-72
2021/12/02 11:13:20;;;;;;;56.75;20.27;;;;;;;8.80;78.86;97737.44;4261318;33;33769;-73
2021/12/02 11:15:49;;;;;;;143.75;55.80;;;;;;;9.30;77.05;97722.09;4262382;33;33846;-75
2021/12/02 11:18:17;;;;;;;111.85;43.17;;;;;;;9.11;77.63;97733.94;4252178;33;34060;-75
2021/12/02 11:20:50;;;;;;;112.12;44.10;;;;;;;8.91;76.90;97734.53;4261018;33;34540;-74
2021/12/02 11:23:22;;;;;;;261.48;96.95;;;;;;;8.36;80.58;97726.56;4249644;33;33786;-74
2021/12/02 11:25:58;;;;;;;78.12;37.83;;;;;;;8.35;80.45;97728.31;4247586;33;33924;-75
2021/12/02 11:28:31;;;;;;;164.60;69.37;;;;;;;7.95;82.81;97724.19;4264759;33;36061;-73
2021/12/02 11:31:07;;;;;;;203.37;81.93;;;;;;;8.09;82.38;97729.03;4245359;33;34548;-72
2021/12/02 11:33:37;;;;;;;113.22;44.42;;;;;;;8.23;81.66;97725.22;4262038;33;33759;-75
2021/12/02 11:36:18;;;;;;;203.82;79.10;;;;;;;7.95;83.41;97720.78;4264454;33;33855;-72
2021/12/02 11:38:46;;;;;;;36.50;17.98;;;;;;;7.85;83.33;97722.72;4250070;33;35141;-75
2021/12/02 11:41:17;;;;;;;13.35;6.28;;;;;;;8.09;82.01;97731.63;4244995;33;34745;-74
2021/12/02 11:43:46;;;;;;;5.62;2.95;;;;;;;8.79;78.65;97720.19;4242883;33;33724;-75
2021/12/02 11:46:16;;;;;;;9.57;6.00;;;;;;;8.10;80.96;97720.38;4260198;33;33222;-75
2021/12/02 11:48:44;;;;;;;11.60;3.42;;;;;;;8.44;78.93;97714.28;4254894;33;35115;-73
2021/12/02 11:51:15;;;;;;;5.05;2.83;;;;;;;8.44;78.70;97709.09;4260141;33;34521;-73
2021/12/02 11:53:44;;;;;;;5.97;3.30;;;;;;;7.99;80.54;97709.41;4264302;33;32328;-73
2021/12/02 11:56:18;;;;;;;4.37;1.98;;;;;;;8.34;80.48;97697.25;4260531;33;34010;-73
2021/12/02 11:58:47;;;;;;;5.95;3.17;;;;;;;7.74;83.48;97701.44;4259667;33;35721;-73
2021/12/02 12:01:16;;;;;;;3.92;2.28;;;;;;;7.76;82.94;97705.72;4247789;33;34459;-75
2021/12/02 12:03:49;;;;;;;2.92;1.80;;;;;;;7.49;85.61;97706.41;4248888;33;34202;-76
2021/12/02 12:06:25;;;;;;;4.72;2.45;;;;;;;8.00;83.14;97712.88;4248428;33;33852;-73
2021/12/02 12:08:57;;;;;;;5.60;2.15;;;;;;;7.69;83.85;97704.13;4238465;33;35096;-72
2021/12/02 12:11:35;;;;;;;6.55;3.20;;;;;;;8.77;78.85;97701.22;4260923;33;34461;-73
2021/12/02 12:14:03;;;;;;;5.10;2.85;;;;;;;8.52;79.18;97701.06;4254703;33;33785;-73
2021/12/02 12:16:32;;;;;;;8.18;3.67;;;;;;;7.80;82.27;97706.47;4263333;33;34677;-73